createdAt,value
2017-07-31T00:02:10.719Z,2.73
2017-07-31T00:04:38.346Z,2.53
2017-07-31T00:07:05.965Z,3.10
2017-07-31T00:09:33.638Z,2.80
2017-07-31T00:12:01.285Z,2.87
2017-07-31T00:14:28.914Z,3.73
2017-07-31T00:16:56.581Z,2.80
2017-07-31T00:19:24.217Z,3.00
2017-07-31T00:21:51.862Z,3.17
2017-07-31T00:24:19.521Z,3.37
2017-07-31T00:26:47.151Z,3.40
2017-07-31T00:29:14.798Z,2.10
2017-07-31T00:31:42.475Z,2.80
2017-07-31T00:34:10.496Z,2.17
2017-07-31T00:36:38.116Z,2.77
2017-07-31T00:39:05.802Z,1.93
2017-07-31T00:41:33.435Z,2.80
2017-07-31T00:44:01.054Z,2.00
2017-07-31T00:46:28.721Z,2.27
2017-07-31T00:48:56.333Z,2.30
2017-07-31T00:51:23.958Z,1.50
2017-07-31T00:53:51.641Z,2.10
2017-07-31T00:56:19.258Z,1.43
2017-07-31T00:58:46.874Z,2.13
2017-07-31T01:01:14.938Z,2.07
2017-07-31T01:03:43.056Z,2.13
2017-07-31T01:06:10.675Z,1.90
2017-07-31T01:08:38.445Z,2.33
2017-07-31T01:11:06.069Z,1.60
2017-07-31T01:13:33.739Z,1.97
2017-07-31T01:16:01.411Z,1.90
2017-07-31T01:18:29.413Z,2.03
2017-07-31T01:20:57.287Z,2.27
2017-07-31T01:23:24.958Z,1.60
2017-07-31T01:25:52.986Z,2.10
2017-07-31T01:28:20.633Z,2.53
2017-07-31T01:30:48.382Z,1.93
2017-07-31T01:33:15.999Z,1.80
2017-07-31T01:35:43.619Z,2.10
2017-07-31T01:38:11.415Z,1.80
2017-07-31T01:40:39.059Z,1.53
2017-07-31T01:43:06.704Z,2.00
2017-07-31T01:45:34.459Z,1.90
2017-07-31T01:48:02.077Z,1.60
2017-07-31T01:50:29.743Z,3.10
2017-07-31T01:52:57.490Z,2.00
2017-07-31T01:55:25.109Z,1.60
2017-07-31T01:57:52.718Z,1.70
2017-07-31T02:00:20.798Z,1.93
2017-07-31T02:02:48.421Z,1.97
2017-07-31T02:05:16.124Z,2.37
2017-07-31T02:07:44.388Z,2.43
2017-07-31T02:10:12.004Z,2.70
2017-07-31T02:12:39.670Z,2.00
2017-07-31T02:15:07.418Z,2.57
2017-07-31T02:17:35.067Z,2.67
2017-07-31T02:20:02.688Z,2.73
2017-07-31T02:22:30.458Z,2.90
2017-07-31T02:24:58.077Z,2.73
2017-07-31T02:27:25.689Z,2.30
2017-07-31T02:29:53.397Z,2.60
2017-07-31T02:32:21.037Z,2.53
2017-07-31T02:34:48.649Z,2.23
2017-07-31T02:37:16.430Z,2.07
2017-07-31T02:39:44.046Z,2.10
2017-07-31T02:42:11.659Z,2.20
2017-07-31T02:44:39.326Z,2.27
2017-07-31T02:47:06.953Z,2.87
2017-07-31T02:49:34.569Z,2.33
2017-07-31T02:52:02.300Z,2.60
2017-07-31T02:54:29.916Z,2.13
2017-07-31T02:56:57.534Z,2.17
2017-07-31T02:59:25.235Z,2.30
2017-07-31T03:01:52.879Z,2.53
2017-07-31T03:04:20.524Z,2.73
2017-07-31T03:06:48.237Z,2.27
2017-07-31T03:09:15.862Z,2.13
2017-07-31T03:11:43.560Z,2.40
2017-07-31T03:14:11.308Z,2.30
2017-07-31T03:16:38.926Z,2.27
2017-07-31T03:19:06.549Z,2.40
2017-07-31T03:21:34.234Z,1.87
2017-07-31T03:24:01.888Z,2.67
2017-07-31T03:26:29.502Z,2.33
2017-07-31T03:28:57.281Z,2.47
2017-07-31T03:31:24.902Z,2.40
2017-07-31T03:33:52.517Z,2.13
2017-07-31T03:36:20.187Z,2.23
2017-07-31T03:38:47.804Z,2.73
2017-07-31T03:41:15.429Z,2.23
2017-07-31T03:43:43.596Z,2.00
2017-07-31T03:46:11.817Z,2.40
2017-07-31T03:48:39.438Z,2.93
2017-07-31T03:51:07.180Z,2.10
2017-07-31T03:53:34.899Z,2.00
2017-07-31T03:56:04.085Z,2.70
2017-07-31T03:58:31.761Z,2.90
2017-07-31T04:00:59.432Z,3.07
2017-07-31T04:03:27.073Z,2.70
2017-07-31T04:05:54.754Z,2.33
2017-07-31T04:08:22.508Z,1.67
2017-07-31T04:10:50.146Z,2.60
2017-07-31T04:13:18.218Z,2.47
2017-07-31T04:15:45.914Z,2.73
2017-07-31T04:18:13.534Z,2.23
2017-07-31T04:20:41.305Z,2.30
2017-07-31T04:23:08.927Z,1.93
2017-07-31T04:25:36.582Z,2.03
2017-07-31T04:28:04.343Z,2.20
2017-07-31T04:30:31.968Z,2.53
2017-07-31T04:32:59.594Z,2.33
2017-07-31T04:35:27.381Z,1.80
2017-07-31T04:37:55.002Z,2.27
2017-07-31T04:40:22.622Z,2.40
2017-07-31T04:42:50.319Z,2.37
2017-07-31T04:45:17.958Z,2.27
2017-07-31T04:47:45.575Z,2.10
2017-07-31T04:50:13.247Z,2.43
2017-07-31T04:52:40.870Z,2.27
2017-07-31T04:55:08.742Z,2.00
2017-07-31T04:57:36.710Z,2.20
2017-07-31T05:00:04.455Z,2.00
2017-07-31T05:02:32.096Z,2.07
2017-07-31T05:04:59.938Z,2.10
2017-07-31T05:07:27.583Z,2.10
2017-07-31T05:09:55.202Z,2.20
2017-07-31T05:12:22.992Z,2.13
2017-07-31T05:14:50.719Z,1.67
2017-07-31T05:17:18.471Z,2.70
2017-07-31T05:19:46.342Z,2.20
2017-07-31T05:22:14.485Z,2.40
2017-07-31T05:24:42.175Z,2.10
2017-07-31T05:27:09.839Z,2.10
2017-07-31T05:29:37.453Z,2.03
2017-07-31T05:32:05.565Z,2.47
2017-07-31T05:34:33.316Z,2.17
2017-07-31T05:37:00.930Z,2.40
2017-07-31T05:39:28.607Z,2.17
2017-07-31T05:41:56.558Z,2.10
2017-07-31T05:44:24.203Z,2.47
2017-07-31T05:46:51.817Z,2.10
2017-07-31T05:49:19.477Z,2.17
2017-07-31T05:51:47.136Z,1.97
2017-07-31T05:54:14.756Z,2.30
2017-07-31T05:56:42.528Z,2.30
2017-07-31T05:59:10.146Z,1.90
2017-07-31T06:01:38.390Z,2.03
2017-07-31T06:04:06.179Z,2.10
2017-07-31T06:06:33.822Z,2.17
2017-07-31T06:09:01.472Z,1.80
2017-07-31T06:11:29.150Z,2.63
2017-07-31T06:13:57.682Z,1.70
2017-07-31T06:16:25.299Z,2.20
2017-07-31T06:18:52.967Z,2.20
2017-07-31T06:21:20.594Z,2.43
2017-07-31T06:23:48.214Z,2.20
2017-07-31T06:26:16.010Z,1.97
2017-07-31T06:28:43.634Z,2.37
2017-07-31T06:31:11.255Z,1.87
2017-07-31T06:33:38.943Z,2.00
2017-07-31T06:36:06.562Z,1.80
2017-07-31T06:38:34.177Z,2.57
2017-07-31T06:41:01.850Z,2.47
2017-07-31T06:43:29.466Z,2.40
2017-07-31T06:45:57.082Z,2.40
2017-07-31T06:48:24.814Z,2.07
2017-07-31T06:50:52.561Z,1.67
2017-07-31T06:53:20.178Z,2.20
2017-07-31T06:55:47.857Z,1.80
2017-07-31T06:58:15.494Z,2.00
2017-07-31T07:00:43.113Z,1.77
2017-07-31T07:03:10.783Z,2.67
2017-07-31T07:05:38.398Z,2.27
2017-07-31T07:08:06.074Z,1.90
2017-07-31T07:10:33.824Z,2.27
2017-07-31T07:13:01.490Z,1.97
2017-07-31T07:15:29.523Z,2.07
2017-07-31T07:17:57.238Z,2.23
2017-07-31T07:20:24.915Z,2.17
2017-07-31T07:22:58.191Z,2.03
2017-07-31T07:25:25.805Z,1.73
2017-07-31T07:27:53.422Z,2.03
2017-07-31T07:30:21.101Z,2.77
2017-07-31T07:32:48.770Z,2.20
2017-07-31T07:35:16.387Z,2.30
2017-07-31T07:37:44.702Z,2.53
2017-07-31T07:40:12.708Z,1.83
2017-07-31T07:42:40.373Z,1.93
2017-07-31T07:45:08.041Z,2.50
2017-07-31T07:47:35.658Z,2.00
2017-07-31T07:50:03.278Z,1.77
2017-07-31T07:52:30.954Z,1.70
2017-07-31T07:54:58.599Z,2.73
2017-07-31T07:57:26.244Z,2.13
2017-07-31T07:59:53.905Z,2.13
2017-07-31T08:02:21.533Z,2.00
2017-07-31T08:04:49.157Z,3.10
2017-07-31T08:07:16.925Z,2.10
2017-07-31T08:09:44.672Z,2.13
2017-07-31T08:12:12.317Z,1.67
2017-07-31T08:14:39.990Z,2.00
2017-07-31T08:17:07.709Z,2.33
2017-07-31T08:19:35.326Z,2.70
2017-07-31T08:22:03.099Z,1.93
2017-07-31T08:24:30.718Z,2.33
2017-07-31T08:26:58.334Z,2.10
2017-07-31T08:29:26.142Z,1.80
2017-07-31T08:31:53.784Z,1.77
2017-07-31T08:34:21.402Z,2.00
2017-07-31T08:36:49.281Z,2.50
2017-07-31T08:39:16.899Z,2.30
2017-07-31T08:41:44.568Z,2.17
2017-07-31T08:44:12.263Z,2.63
2017-07-31T08:46:39.884Z,2.80
2017-07-31T08:49:07.897Z,2.00
2017-07-31T08:51:35.659Z,1.93
2017-07-31T08:54:03.307Z,2.03
2017-07-31T08:56:30.922Z,1.70
2017-07-31T08:58:58.699Z,2.20
2017-07-31T09:01:26.343Z,2.10
2017-07-31T09:03:53.957Z,1.77
2017-07-31T09:06:21.735Z,2.07
2017-07-31T09:08:49.380Z,2.33
2017-07-31T09:11:16.999Z,1.60
2017-07-31T09:13:44.775Z,2.60
2017-07-31T09:16:12.395Z,2.23
2017-07-31T09:18:40.011Z,2.80
2017-07-31T09:21:07.705Z,2.30
2017-07-31T09:23:35.322Z,2.27
2017-07-31T09:26:02.937Z,1.83
2017-07-31T09:28:31.005Z,2.43
2017-07-31T09:30:58.704Z,2.67
2017-07-31T09:33:26.318Z,2.33
2017-07-31T09:35:53.986Z,2.13
2017-07-31T09:38:21.631Z,2.37
2017-07-31T09:43:23.685Z,3.07
2017-07-31T09:45:51.323Z,2.50
2017-07-31T09:48:18.946Z,3.50
2017-07-31T09:50:47.051Z,2.63
2017-07-31T09:53:15.255Z,2.50
2017-07-31T09:55:43.028Z,2.10
2017-07-31T09:58:10.776Z,2.87
2017-07-31T10:00:38.420Z,3.37
2017-07-31T10:03:06.064Z,2.27
2017-07-31T10:05:33.815Z,2.50
2017-07-31T10:08:01.434Z,2.30
2017-07-31T10:10:29.210Z,2.57
2017-07-31T10:12:56.954Z,3.60
2017-07-31T10:15:24.570Z,2.97
2017-07-31T10:17:52.185Z,2.50
2017-07-31T10:20:19.888Z,2.50
2017-07-31T10:25:21.453Z,2.70
2017-07-31T10:27:50.093Z,2.50
2017-07-31T10:30:17.736Z,2.43
2017-07-31T10:32:45.410Z,2.60
2017-07-31T10:35:13.435Z,2.30
2017-07-31T10:37:41.061Z,3.00
2017-07-31T10:40:08.819Z,2.57
2017-07-31T10:42:36.473Z,3.53
2017-07-31T10:45:04.097Z,2.93
2017-07-31T10:47:31.867Z,2.07
2017-07-31T10:49:59.486Z,2.80
2017-07-31T10:52:27.101Z,2.60
2017-07-31T10:54:54.800Z,3.10
2017-07-31T10:57:22.418Z,2.10
2017-07-31T10:59:50.090Z,3.07
2017-07-31T11:02:17.766Z,3.40
2017-07-31T11:04:45.484Z,3.00
2017-07-31T11:07:13.102Z,2.93
2017-07-31T11:09:40.875Z,2.80
2017-07-31T11:12:08.519Z,3.60
2017-07-31T11:14:36.129Z,3.20
2017-07-31T11:17:03.794Z,3.20
2017-07-31T11:19:31.456Z,3.40
2017-07-31T11:21:59.074Z,3.30
2017-07-31T11:24:26.761Z,3.37
2017-07-31T11:26:54.492Z,2.70
2017-07-31T11:29:22.109Z,6.20
2017-07-31T11:31:49.884Z,3.70
2017-07-31T11:34:17.499Z,2.80
2017-07-31T11:36:45.118Z,2.73
2017-07-31T11:39:12.820Z,3.77
2017-07-31T11:41:40.440Z,2.90
2017-07-31T11:44:08.063Z,2.90
2017-07-31T11:46:35.831Z,3.17
2017-07-31T11:49:03.454Z,3.63
2017-07-31T11:51:31.073Z,2.83
2017-07-31T11:53:59.145Z,2.73
2017-07-31T11:56:26.846Z,3.10
2017-07-31T11:58:54.467Z,3.50
2017-07-31T12:01:22.229Z,2.57
2017-07-31T12:03:49.845Z,3.03
2017-07-31T12:06:17.528Z,3.30
2017-07-31T12:08:45.275Z,3.20
2017-07-31T12:11:12.919Z,4.00
2017-07-31T12:13:40.538Z,2.73
2017-07-31T12:16:08.310Z,3.40
2017-07-31T12:18:35.930Z,2.83
2017-07-31T12:21:03.550Z,2.43
2017-07-31T12:23:31.213Z,3.00
2017-07-31T12:25:58.893Z,2.90
2017-07-31T12:28:26.514Z,3.23
2017-07-31T12:30:54.285Z,2.97
2017-07-31T12:33:21.930Z,2.90
2017-07-31T12:35:49.546Z,3.07
2017-07-31T12:38:17.218Z,3.03
2017-07-31T12:40:44.834Z,2.53
2017-07-31T12:43:12.449Z,2.50
2017-07-31T12:45:40.130Z,2.70
2017-07-31T12:48:07.754Z,3.20
2017-07-31T12:50:35.444Z,4.33
2017-07-31T12:53:03.193Z,2.63
2017-07-31T12:55:30.809Z,2.70
2017-07-31T12:57:58.431Z,3.50
2017-07-31T13:00:26.229Z,2.90
2017-07-31T13:02:53.847Z,3.20
2017-07-31T13:05:21.481Z,3.03
2017-07-31T13:10:23.218Z,2.40
2017-07-31T13:12:50.899Z,3.43
2017-07-31T13:15:18.548Z,2.83
2017-07-31T13:17:46.173Z,3.13
2017-07-31T13:20:13.940Z,2.70
2017-07-31T13:22:41.586Z,3.03
2017-07-31T13:25:09.229Z,2.37
2017-07-31T13:27:37.489Z,2.73
2017-07-31T13:30:05.156Z,3.00
2017-07-31T13:32:32.790Z,2.03
2017-07-31T13:35:00.497Z,3.43
2017-07-31T13:37:28.172Z,2.83
2017-07-31T13:39:55.920Z,2.70
2017-07-31T13:42:23.616Z,2.57
2017-07-31T13:44:51.254Z,2.40
2017-07-31T13:47:18.889Z,2.70
2017-07-31T13:49:46.581Z,2.30
2017-07-31T13:52:14.350Z,2.83
2017-07-31T13:54:41.991Z,2.53
2017-07-31T13:57:09.701Z,2.83
2017-07-31T13:59:37.384Z,2.90
2017-07-31T14:02:05.022Z,2.53
2017-07-31T14:04:32.710Z,2.20
2017-07-31T14:07:00.423Z,2.50
2017-07-31T14:09:28.068Z,2.40
2017-07-31T14:11:55.771Z,2.33
2017-07-31T14:14:23.406Z,2.50
2017-07-31T14:16:51.041Z,2.00
2017-07-31T14:19:18.818Z,2.33
2017-07-31T14:21:46.470Z,2.43
2017-07-31T14:24:14.094Z,2.80
2017-07-31T14:26:41.785Z,2.43
2017-07-31T14:29:09.533Z,2.43
2017-07-31T14:31:37.490Z,2.23
2017-07-31T14:34:05.173Z,2.60
2017-07-31T14:36:33.082Z,2.63
2017-07-31T14:39:00.730Z,3.10
2017-07-31T14:41:28.476Z,2.37
2017-07-31T14:43:56.121Z,2.43
2017-07-31T14:46:23.765Z,2.57
2017-07-31T14:48:51.513Z,2.50
2017-07-31T14:51:19.155Z,2.13
2017-07-31T14:53:46.782Z,2.67
2017-07-31T14:56:14.474Z,1.97
2017-07-31T14:58:42.606Z,2.03
2017-07-31T15:01:10.233Z,2.20
2017-07-31T15:03:37.917Z,3.20
2017-07-31T15:06:05.550Z,2.33
2017-07-31T15:08:33.183Z,2.30
2017-07-31T15:11:00.866Z,1.90
2017-07-31T15:13:28.901Z,2.33
2017-07-31T15:15:56.529Z,2.77
2017-07-31T15:18:24.207Z,2.23
2017-07-31T15:20:52.330Z,2.00
2017-07-31T15:23:19.957Z,2.30
2017-07-31T15:25:47.654Z,3.17
2017-07-31T15:28:15.301Z,2.77
2017-07-31T15:30:43.421Z,2.83
2017-07-31T15:33:11.121Z,3.07
2017-07-31T15:35:38.812Z,2.37
2017-07-31T15:38:06.559Z,3.40
2017-07-31T15:40:34.310Z,2.80
2017-07-31T15:43:01.954Z,3.13
2017-07-31T15:45:29.599Z,2.67
2017-07-31T15:47:57.347Z,3.33
2017-07-31T15:50:25.094Z,2.60
2017-07-31T15:52:52.726Z,3.43
2017-07-31T15:55:20.882Z,3.30
2017-07-31T15:57:48.519Z,3.03
2017-07-31T16:00:16.184Z,2.70
2017-07-31T16:02:43.931Z,3.00
2017-07-31T16:05:11.576Z,3.47
2017-07-31T16:07:39.220Z,2.90
2017-07-31T16:10:06.902Z,2.87
2017-07-31T16:12:34.934Z,4.00
2017-07-31T16:15:02.669Z,2.40
2017-07-31T16:17:30.337Z,2.97
2017-07-31T16:19:58.358Z,2.57
2017-07-31T16:22:25.998Z,3.03
2017-07-31T16:24:53.674Z,2.67
2017-07-31T16:27:21.310Z,2.50
2017-07-31T16:29:48.948Z,2.80
2017-07-31T16:32:16.630Z,2.97
2017-07-31T16:34:44.748Z,2.80
2017-07-31T16:37:38.298Z,2.50
2017-07-31T16:40:32.668Z,3.07
2017-07-31T16:43:21.199Z,3.37
2017-07-31T16:45:48.843Z,2.40
2017-07-31T16:48:28.340Z,2.80
2017-07-31T16:50:56.018Z,2.57
2017-07-31T16:53:23.686Z,2.73
2017-07-31T16:55:51.837Z,3.20
2017-07-31T16:58:19.969Z,2.93
2017-07-31T17:03:22.169Z,4.60
2017-07-31T17:05:49.823Z,3.23
2017-07-31T17:08:17.464Z,3.00
2017-07-31T17:10:45.146Z,2.80
2017-07-31T17:13:12.774Z,2.70
2017-07-31T17:15:40.410Z,2.87
2017-07-31T17:18:08.094Z,2.90
2017-07-31T17:20:35.737Z,3.37
2017-07-31T17:23:03.383Z,2.70
2017-07-31T17:25:31.232Z,3.10
2017-07-31T17:27:58.880Z,3.30
2017-07-31T17:30:26.624Z,3.10
2017-07-31T17:32:54.306Z,2.80
2017-07-31T17:35:22.342Z,3.50
2017-07-31T17:37:50.071Z,3.83
2017-07-31T17:40:17.817Z,2.60
2017-07-31T17:42:45.462Z,2.60
2017-07-31T17:45:13.210Z,3.23
2017-07-31T17:47:41.060Z,3.80
2017-07-31T17:50:08.806Z,3.80
2017-07-31T17:52:36.443Z,3.60
2017-07-31T17:55:04.303Z,3.27
2017-07-31T17:57:31.958Z,3.00
2017-07-31T17:59:59.695Z,3.00
2017-07-31T18:02:27.544Z,3.07
2017-07-31T18:04:55.188Z,2.87
2017-07-31T18:07:22.831Z,3.13
2017-07-31T18:09:50.517Z,3.07
2017-07-31T18:12:18.579Z,2.90
2017-07-31T18:14:46.281Z,2.73
2017-07-31T18:17:14.028Z,2.97
2017-07-31T18:19:41.668Z,3.57
2017-07-31T18:22:09.316Z,3.93
2017-07-31T18:24:36.998Z,3.50
2017-07-31T18:27:04.712Z,4.13
2017-07-31T18:29:32.349Z,3.73
2017-07-31T18:32:00.086Z,3.80
2017-07-31T18:34:27.748Z,3.80
2017-07-31T18:36:55.377Z,4.87
2017-07-31T18:39:23.162Z,3.87
2017-07-31T18:41:51.197Z,3.40
2017-07-31T18:44:18.830Z,3.17
2017-07-31T18:46:46.587Z,3.27
2017-07-31T18:49:14.435Z,3.23
2017-07-31T18:51:42.182Z,3.70
2017-07-31T18:54:10.853Z,3.93
2017-07-31T18:56:39.191Z,3.80
2017-07-31T18:59:06.965Z,3.30
2017-07-31T19:01:34.662Z,3.40
2017-07-31T19:04:02.314Z,3.97
2017-07-31T19:06:29.961Z,3.97
2017-07-31T19:08:57.745Z,3.83
2017-07-31T19:11:25.494Z,3.37
2017-07-31T19:13:54.266Z,4.30
2017-07-31T19:16:22.114Z,4.60
2017-07-31T19:18:50.376Z,4.83
2017-07-31T19:21:18.122Z,3.30
2017-07-31T19:23:45.868Z,3.57
2017-07-31T19:26:13.614Z,4.10
2017-07-31T19:28:41.286Z,4.43
2017-07-31T19:31:09.087Z,3.33
2017-07-31T19:33:36.753Z,3.73
2017-07-31T19:36:04.389Z,3.10
2017-07-31T19:38:32.065Z,3.37
2017-07-31T19:41:00.111Z,5.43
2017-07-31T19:43:27.950Z,5.33
2017-07-31T19:45:55.798Z,5.07
2017-07-31T19:48:23.442Z,5.30
2017-07-31T19:50:51.190Z,4.10
2017-07-31T19:53:18.883Z,4.70
2017-07-31T19:55:46.584Z,4.37
2017-07-31T19:58:14.226Z,5.00
2017-07-31T20:00:42.042Z,5.30
2017-07-31T20:03:09.823Z,3.73
2017-07-31T20:05:37.463Z,4.63
2017-07-31T20:08:05.305Z,3.97
2017-07-31T20:10:32.938Z,4.13
2017-07-31T20:13:00.609Z,4.10
2017-07-31T20:15:28.357Z,4.00
2017-07-31T20:17:56.106Z,3.10
2017-07-31T20:20:23.851Z,3.17
2017-07-31T20:22:51.701Z,4.67
2017-07-31T20:25:19.390Z,4.10
2017-07-31T20:27:47.031Z,4.60
2017-07-31T20:30:14.839Z,4.83
2017-07-31T20:32:42.484Z,4.10
2017-07-31T20:35:10.127Z,3.30
2017-07-31T20:37:37.878Z,3.93
2017-07-31T20:40:05.522Z,4.00
2017-07-31T20:42:33.269Z,3.50
2017-07-31T20:45:00.964Z,3.63
2017-07-31T20:47:28.632Z,2.53
2017-07-31T20:49:56.278Z,3.83
2017-07-31T20:52:23.969Z,3.40
2017-07-31T20:54:51.601Z,4.07
2017-07-31T20:57:19.236Z,3.30
2017-07-31T20:59:46.988Z,3.70
2017-07-31T21:02:14.618Z,4.00
2017-07-31T21:04:42.277Z,4.77
2017-07-31T21:07:09.975Z,3.07
2017-07-31T21:09:37.614Z,3.60
2017-07-31T21:12:05.316Z,3.30
2017-07-31T21:14:32.994Z,4.07
2017-07-31T21:17:01.118Z,3.70
2017-07-31T21:19:28.794Z,3.20
2017-07-31T21:21:56.919Z,3.57
2017-07-31T21:24:24.554Z,3.70
2017-07-31T21:26:52.208Z,3.77
2017-07-31T21:29:19.902Z,3.70
2017-07-31T21:31:47.601Z,3.87
2017-07-31T21:34:15.347Z,3.90
2017-07-31T21:36:43.466Z,3.50
2017-07-31T21:39:11.148Z,3.40
2017-07-31T21:41:38.774Z,3.80
2017-07-31T21:44:06.470Z,4.50
2017-07-31T21:46:34.506Z,3.50
2017-07-31T21:49:02.146Z,4.00
2017-07-31T21:51:29.834Z,4.03
2017-07-31T21:53:57.470Z,3.60
2017-07-31T21:56:25.586Z,4.83
2017-07-31T21:58:53.266Z,4.70
2017-07-31T22:01:21.387Z,4.03
2017-07-31T22:03:49.029Z,3.67
2017-07-31T22:06:16.739Z,3.90
2017-07-31T22:08:44.398Z,4.70
2017-07-31T22:11:12.030Z,3.73
2017-07-31T22:13:39.755Z,4.43
2017-07-31T22:16:07.458Z,4.17
2017-07-31T22:18:35.093Z,5.50
2017-07-31T22:21:08.382Z,4.13
2017-07-31T22:23:36.129Z,5.00
2017-07-31T22:26:03.758Z,3.90
2017-07-31T22:28:31.438Z,4.43
2017-07-31T22:30:59.211Z,4.37
2017-07-31T22:33:26.850Z,4.00
2017-07-31T22:35:55.149Z,4.60
2017-07-31T22:38:22.786Z,4.23
2017-07-31T22:40:50.433Z,4.77
2017-07-31T22:43:18.210Z,4.00
2017-07-31T22:45:45.958Z,4.50
2017-07-31T22:48:13.706Z,4.20
2017-07-31T22:50:41.408Z,4.60
2017-07-31T22:53:09.096Z,4.63
2017-07-31T22:55:36.740Z,3.90
2017-07-31T22:58:04.492Z,3.70
2017-07-31T23:00:32.123Z,4.10
2017-07-31T23:02:59.761Z,4.37
2017-07-31T23:05:27.528Z,4.93
2017-07-31T23:07:55.165Z,4.40
2017-07-31T23:10:22.798Z,5.10
2017-07-31T23:12:50.564Z,3.90
2017-07-31T23:15:18.198Z,3.97
2017-07-31T23:17:45.835Z,4.33
2017-07-31T23:20:13.601Z,4.13
2017-07-31T23:22:41.233Z,4.30
2017-07-31T23:25:08.892Z,4.53
2017-07-31T23:27:36.670Z,4.30
2017-07-31T23:30:04.703Z,3.77
2017-07-31T23:32:32.443Z,3.93
2017-07-31T23:35:00.130Z,4.10
2017-07-31T23:37:27.836Z,4.20
2017-07-31T23:39:55.470Z,4.40
2017-07-31T23:42:23.169Z,4.03
2017-07-31T23:44:50.810Z,4.57
2017-07-31T23:47:18.617Z,4.40
2017-07-31T23:49:46.364Z,3.80
2017-07-31T23:52:14.004Z,4.90
2017-07-31T23:54:41.634Z,4.97
2017-07-31T23:57:09.329Z,4.70
2017-07-31T23:59:37.350Z,4.00
